createdAt,value
2019-01-10T00:01:36.075Z,12.20
2019-01-10T00:06:53.909Z,10.13
2019-01-10T00:12:11.727Z,9.43
2019-01-10T00:17:29.817Z,7.80
2019-01-10T00:22:47.637Z,6.43
2019-01-10T00:28:05.451Z,5.80
2019-01-10T00:33:23.335Z,5.13
2019-01-10T00:38:41.197Z,4.63
2019-01-10T00:43:59.018Z,5.00
2019-01-10T00:49:16.840Z,5.70
2019-01-10T00:54:34.656Z,6.33
2019-01-10T00:59:52.595Z,5.37
2019-01-10T01:05:12.455Z,5.37
2019-01-10T01:10:30.275Z,5.43
2019-01-10T01:15:49.166Z,5.13
2019-01-10T01:21:07.076Z,5.27
2019-01-10T01:26:24.900Z,4.37
2019-01-10T01:31:43.188Z,4.57
2019-01-10T01:37:01.012Z,4.23
2019-01-10T01:42:18.866Z,4.10
2019-01-10T01:47:36.715Z,3.33
2019-01-10T01:52:54.528Z,3.57
2019-01-10T01:58:12.348Z,3.20
2019-01-10T02:03:30.151Z,3.10
2019-01-10T02:08:47.967Z,3.20
2019-01-10T02:14:07.095Z,3.10
2019-01-10T02:19:24.920Z,3.47
2019-01-10T02:24:42.731Z,3.70
2019-01-10T02:30:00.554Z,4.23
2019-01-10T02:35:18.371Z,5.63
2019-01-10T02:40:36.288Z,6.77
2019-01-10T02:45:54.113Z,7.27
2019-01-10T02:51:11.931Z,7.23
2019-01-10T02:56:29.752Z,9.17
2019-01-10T03:01:47.654Z,9.93
2019-01-10T03:07:05.447Z,10.23
2019-01-10T03:12:23.277Z,12.70
2019-01-10T03:17:41.201Z,13.23
2019-01-10T03:22:59.020Z,10.17
2019-01-10T03:28:16.849Z,9.30
2019-01-10T03:33:35.894Z,10.00
2019-01-10T03:38:53.724Z,9.70
2019-01-10T03:44:11.543Z,8.90
2019-01-10T03:49:29.363Z,8.53
2019-01-10T03:54:47.200Z,9.43
2019-01-10T04:00:11.453Z,8.50
2019-01-10T04:05:29.596Z,9.37
2019-01-10T04:10:47.416Z,11.60
2019-01-10T04:16:05.310Z,12.87
2019-01-10T04:21:23.260Z,12.73
2019-01-10T04:26:41.085Z,15.23
2019-01-10T04:31:58.912Z,14.10
2019-01-10T04:37:17.711Z,14.83
2019-01-10T04:42:35.540Z,11.47
2019-01-10T04:47:53.368Z,7.50
2019-01-10T04:53:11.192Z,6.37
2019-01-10T04:58:29.087Z,4.97
2019-01-10T05:03:46.903Z,3.67
2019-01-10T05:09:06.377Z,6.07
2019-01-10T05:14:24.196Z,3.27
2019-01-10T05:19:42.056Z,3.67
2019-01-10T05:24:59.871Z,3.60
2019-01-10T05:30:22.271Z,4.33
2019-01-10T05:35:40.144Z,3.73
2019-01-10T05:40:57.955Z,4.07
2019-01-10T05:46:15.804Z,4.07
2019-01-10T05:51:33.625Z,3.87
2019-01-10T05:56:51.921Z,3.27
2019-01-10T06:02:09.804Z,4.33
2019-01-10T06:07:27.697Z,4.50
2019-01-10T06:12:45.515Z,5.43
2019-01-10T06:18:03.412Z,5.07
2019-01-10T06:23:21.328Z,6.10
2019-01-10T06:28:40.224Z,7.10
2019-01-10T06:33:58.052Z,7.03
2019-01-10T06:39:17.587Z,8.37
2019-01-10T06:44:35.321Z,7.70
2019-01-10T06:49:53.139Z,8.10
2019-01-10T06:55:11.230Z,7.77
2019-01-10T07:00:29.045Z,7.60
2019-01-10T07:05:46.860Z,7.00
2019-01-10T07:11:04.761Z,8.27
2019-01-10T07:16:22.587Z,7.57
2019-01-10T07:21:42.048Z,8.03
2019-01-10T07:26:59.872Z,6.73
2019-01-10T07:32:17.692Z,7.63
2019-01-10T07:37:35.512Z,8.40
2019-01-10T07:42:53.408Z,9.27
2019-01-10T07:48:11.508Z,7.35
2019-01-10T07:53:29.430Z,9.37
2019-01-10T07:58:47.376Z,8.73
2019-01-10T08:04:05.219Z,11.87
2019-01-10T08:09:23.072Z,11.03
2019-01-10T08:14:40.932Z,12.47
2019-01-10T08:19:58.762Z,9.23
2019-01-10T08:25:16.588Z,8.60
2019-01-10T08:30:34.428Z,7.30
2019-01-10T08:35:52.313Z,7.43
2019-01-10T08:41:10.103Z,7.43
2019-01-10T08:46:27.928Z,9.20
2019-01-10T08:51:45.818Z,8.43
2019-01-10T08:57:03.640Z,7.53
2019-01-10T09:02:21.460Z,6.17
2019-01-10T09:07:39.336Z,6.60
2019-01-10T09:12:57.160Z,6.70
2019-01-10T09:18:16.060Z,6.43
2019-01-10T09:23:33.895Z,8.63
2019-01-10T09:28:51.712Z,6.63
2019-01-10T09:34:09.531Z,9.13
2019-01-10T09:39:27.357Z,7.80
2019-01-10T09:44:45.209Z,8.87
2019-01-10T09:50:03.483Z,17.17
2019-01-10T09:55:21.303Z,14.77
2019-01-10T10:00:39.132Z,7.47
2019-01-10T10:05:57.004Z,7.07
2019-01-10T10:11:14.891Z,6.83
2019-01-10T10:16:32.711Z,6.10
2019-01-10T10:21:50.541Z,6.63
2019-01-10T10:27:08.353Z,6.87
2019-01-10T10:32:26.170Z,6.37
2019-01-10T10:37:44.043Z,6.57
2019-01-10T10:43:01.846Z,7.40
2019-01-10T10:48:19.660Z,6.60
2019-01-10T10:53:37.490Z,6.43
2019-01-10T10:58:55.314Z,5.90
2019-01-10T11:04:13.213Z,5.80
2019-01-10T11:09:31.034Z,6.37
2019-01-10T11:14:48.861Z,6.40
2019-01-10T11:20:10.075Z,5.00
2019-01-10T11:25:28.048Z,5.73
2019-01-10T11:30:45.880Z,4.23
2019-01-10T11:36:03.804Z,4.40
2019-01-10T11:41:21.760Z,5.27
2019-01-10T11:46:39.578Z,5.73
2019-01-10T11:51:57.460Z,5.37
2019-01-10T11:57:15.349Z,5.83
2019-01-10T12:02:36.383Z,5.77
2019-01-10T12:07:52.624Z,5.30
2019-01-10T12:13:10.442Z,6.57
2019-01-10T12:18:28.304Z,5.77
2019-01-10T12:23:46.143Z,5.80
2019-01-10T12:29:03.995Z,6.87
2019-01-10T12:34:21.847Z,6.27
2019-01-10T12:39:39.677Z,18.73
2019-01-10T12:44:57.503Z,21.70
2019-01-10T12:50:18.859Z,8.10
2019-01-10T12:55:37.132Z,6.23
2019-01-10T13:00:54.971Z,6.57
2019-01-10T13:06:12.779Z,5.53
2019-01-10T13:11:30.609Z,6.30
2019-01-10T13:16:48.538Z,7.03
2019-01-10T13:22:06.387Z,8.20
2019-01-10T13:27:24.203Z,6.80
2019-01-10T13:32:42.019Z,8.43
2019-01-10T13:37:59.836Z,7.50
2019-01-10T13:43:17.707Z,7.67
2019-01-10T13:48:35.545Z,7.53
2019-01-10T13:53:53.369Z,6.97
2019-01-10T14:04:28.980Z,6.40
2019-01-10T14:09:46.824Z,7.03
2019-01-10T14:15:07.777Z,7.27
2019-01-10T14:20:25.651Z,6.93
2019-01-10T14:25:44.796Z,5.40
2019-01-10T14:31:03.426Z,5.20
2019-01-10T14:36:21.304Z,5.80
2019-01-10T14:41:39.137Z,5.97
2019-01-10T14:46:57.024Z,4.77
2019-01-10T14:52:14.844Z,5.80
2019-01-10T14:57:32.844Z,5.13
2019-01-10T15:02:50.704Z,5.77
2019-01-10T15:08:08.523Z,4.83
2019-01-10T15:13:26.411Z,8.23
2019-01-10T15:18:44.279Z,12.33
2019-01-10T15:24:02.101Z,8.33
2019-01-10T15:29:19.996Z,5.30
2019-01-10T15:34:37.844Z,5.60
2019-01-10T15:39:55.701Z,6.57
2019-01-10T15:45:13.603Z,6.30
2019-01-10T15:50:31.424Z,6.57
2019-01-10T15:55:49.263Z,6.60
2019-01-10T16:01:07.410Z,7.40
2019-01-10T16:06:25.240Z,7.43
2019-01-10T16:11:43.167Z,6.47
2019-01-10T16:17:01.176Z,7.13
2019-01-10T16:22:19.472Z,6.53
2019-01-10T16:27:37.504Z,7.03
2019-01-10T16:32:55.338Z,7.23
2019-01-10T16:38:13.133Z,7.00
2019-01-10T16:43:30.961Z,7.77
2019-01-10T16:48:48.784Z,7.57
2019-01-10T16:54:06.610Z,9.37
2019-01-10T16:59:24.437Z,8.67
2019-01-10T17:04:42.267Z,8.60
2019-01-10T17:10:00.280Z,7.90
2019-01-10T17:15:19.164Z,9.00
2019-01-10T17:20:38.708Z,7.83
2019-01-10T17:25:56.530Z,7.13
2019-01-10T17:31:14.378Z,7.73
2019-01-10T17:36:32.200Z,7.23
2019-01-10T17:41:50.039Z,6.80
2019-01-10T17:47:07.943Z,6.17
2019-01-10T17:52:25.842Z,15.10
2019-01-10T17:57:43.751Z,6.63
2019-01-10T18:03:01.673Z,6.63
2019-01-10T18:08:20.574Z,4.87
2019-01-10T18:13:38.580Z,5.83
2019-01-10T18:18:56.420Z,5.97
2019-01-10T18:24:14.268Z,5.83
2019-01-10T18:29:33.032Z,5.33
2019-01-10T18:34:51.704Z,6.03
2019-01-10T18:40:13.139Z,5.73
2019-01-10T18:45:31.985Z,9.10
2019-01-10T18:50:50.425Z,6.83
2019-01-10T18:56:08.367Z,6.00
2019-01-10T19:01:26.210Z,5.67
2019-01-10T19:06:44.056Z,5.70
2019-01-10T19:12:02.063Z,5.50
2019-01-10T19:17:25.990Z,6.10
2019-01-10T19:22:40.064Z,5.80
2019-01-10T19:27:57.961Z,5.70
2019-01-10T19:33:15.984Z,5.60
2019-01-10T19:38:33.820Z,11.23
2019-01-10T19:43:51.676Z,6.63
2019-01-10T19:49:09.550Z,6.83
2019-01-10T19:54:27.445Z,5.90
2019-01-10T19:59:45.265Z,5.90
2019-01-10T20:05:03.166Z,5.97
2019-01-10T20:10:21.074Z,5.90
2019-01-10T20:15:39.106Z,6.20
2019-01-10T20:20:58.191Z,6.63
2019-01-10T20:26:16.088Z,6.37
2019-01-10T20:31:33.990Z,6.80
2019-01-10T20:36:51.882Z,7.10
2019-01-10T20:42:09.780Z,7.63
2019-01-10T20:47:27.692Z,6.47
2019-01-10T20:52:45.592Z,6.60
2019-01-10T20:58:03.412Z,5.63
2019-01-10T21:03:21.308Z,7.43
2019-01-10T21:08:39.144Z,7.00
2019-01-10T21:13:57.956Z,7.03
2019-01-10T21:19:15.781Z,7.43
2019-01-10T21:24:33.688Z,5.93
2019-01-10T21:29:51.580Z,7.00
2019-01-10T21:35:09.544Z,7.90
2019-01-10T21:40:28.717Z,6.87
2019-01-10T21:45:46.607Z,7.30
2019-01-10T21:51:04.444Z,8.17
2019-01-10T21:56:22.331Z,8.67
2019-01-10T22:01:40.168Z,8.43
2019-01-10T22:06:58.075Z,9.80
2019-01-10T22:12:15.930Z,9.10
2019-01-10T22:17:33.920Z,9.30
2019-01-10T22:22:51.727Z,9.60
2019-01-10T22:28:09.591Z,8.20
2019-01-10T22:33:28.456Z,8.43
2019-01-10T22:38:46.280Z,9.23
2019-01-10T22:44:04.221Z,9.43
2019-01-10T22:49:22.015Z,10.03
2019-01-10T22:54:39.853Z,11.87
2019-01-10T22:59:57.683Z,10.73
2019-01-10T23:05:15.527Z,12.07
2019-01-10T23:10:33.355Z,11.77
2019-01-10T23:15:51.196Z,13.43
2019-01-10T23:21:09.048Z,14.57
2019-01-10T23:26:26.906Z,13.73
2019-01-10T23:31:44.736Z,13.83
2019-01-10T23:37:02.564Z,12.90
2019-01-10T23:42:20.423Z,12.90
2019-01-10T23:47:38.260Z,12.87
2019-01-10T23:52:56.152Z,11.83
2019-01-10T23:58:13.993Z,12.53
